createdAt,value
2018-05-06T00:01:41.096Z,93.20
2018-05-06T00:04:08.603Z,93.20
2018-05-06T00:06:36.121Z,91.90
2018-05-06T00:09:03.660Z,94.00
2018-05-06T00:11:31.974Z,93.60
2018-05-06T00:13:59.558Z,93.60
2018-05-06T00:16:27.087Z,92.50
2018-05-06T00:18:55.102Z,93.80
2018-05-06T00:21:23.410Z,93.60
2018-05-06T00:23:50.933Z,93.50
2018-05-06T00:26:19.256Z,94.70
2018-05-06T00:28:46.803Z,94.70
2018-05-06T00:31:15.167Z,94.70
2018-05-06T00:33:42.762Z,93.30
2018-05-06T00:36:10.230Z,94.70
2018-05-06T00:38:37.746Z,94.60
2018-05-06T00:41:05.296Z,93.60
2018-05-06T00:43:33.615Z,94.70
2018-05-06T00:46:01.164Z,94.70
2018-05-06T00:48:28.726Z,94.00
2018-05-06T00:50:56.285Z,94.00
2018-05-06T00:53:23.844Z,93.10
2018-05-06T00:55:51.410Z,94.20
2018-05-06T00:58:18.953Z,94.50
2018-05-06T01:00:46.485Z,95.30
2018-05-06T01:03:14.044Z,95.60
2018-05-06T01:05:42.338Z,94.60
2018-05-06T01:08:09.880Z,94.60
2018-05-06T01:10:37.432Z,94.10
2018-05-06T01:13:05.745Z,96.90
2018-05-06T01:15:33.270Z,96.90
2018-05-06T01:18:00.824Z,95.30
2018-05-06T01:20:29.098Z,95.10
2018-05-06T01:22:57.412Z,96.50
2018-05-06T01:25:24.960Z,96.50
2018-05-06T01:27:52.497Z,96.10
2018-05-06T01:30:20.776Z,96.40
2018-05-06T01:32:49.100Z,95.50
2018-05-06T01:35:16.618Z,95.50
2018-05-06T01:37:44.896Z,95.40
2018-05-06T01:40:13.175Z,95.20
2018-05-06T01:42:41.464Z,97.20
2018-05-06T01:45:08.996Z,97.20
2018-05-06T01:47:36.551Z,95.80
2018-05-06T01:50:04.837Z,97.10
2018-05-06T01:52:33.120Z,94.90
2018-05-06T01:55:01.403Z,93.60
2018-05-06T01:57:28.946Z,93.60
2018-05-06T01:59:56.497Z,93.20
2018-05-06T02:02:24.829Z,85.10
2018-05-06T02:04:52.386Z,84.90
2018-05-06T02:07:19.926Z,79.90
2018-05-06T02:09:47.456Z,81.00
2018-05-06T02:12:15.011Z,81.60
2018-05-06T02:14:43.323Z,81.40
2018-05-06T02:17:10.867Z,81.40
2018-05-06T02:19:38.444Z,81.60
2018-05-06T02:22:05.988Z,84.40
2018-05-06T02:24:33.536Z,83.50
2018-05-06T02:27:01.863Z,81.10
2018-05-06T02:29:29.404Z,81.10
2018-05-06T02:31:56.968Z,81.50
2018-05-06T02:34:24.525Z,81.20
2018-05-06T02:36:52.082Z,79.80
2018-05-06T02:39:19.633Z,78.90
2018-05-06T02:41:47.192Z,84.60
2018-05-06T02:44:14.737Z,87.10
2018-05-06T02:46:42.292Z,90.30
2018-05-06T02:49:09.819Z,90.70
2018-05-06T02:51:37.334Z,90.80
2018-05-06T02:54:04.890Z,91.90
2018-05-06T02:56:32.423Z,93.80
2018-05-06T02:58:59.939Z,91.40
2018-05-06T03:01:27.485Z,93.60
2018-05-06T03:03:55.022Z,92.20
2018-05-06T03:06:22.542Z,91.60
2018-05-06T03:08:50.835Z,91.40
2018-05-06T03:11:18.346Z,91.30
2018-05-06T03:13:46.668Z,91.70
2018-05-06T03:16:14.214Z,91.70
2018-05-06T03:18:42.526Z,89.80
2018-05-06T03:21:10.083Z,89.70
2018-05-06T03:23:37.595Z,87.80
2018-05-06T03:26:05.891Z,90.70
2018-05-06T03:28:33.432Z,90.80
2018-05-06T03:31:00.984Z,91.80
2018-05-06T03:33:28.541Z,91.90
2018-05-06T03:35:56.133Z,90.10
2018-05-06T03:38:23.645Z,88.20
2018-05-06T03:40:51.190Z,85.90
2018-05-06T03:43:18.718Z,88.00
2018-05-06T03:45:46.267Z,86.30
2018-05-06T03:48:13.798Z,86.70
2018-05-06T03:50:41.381Z,85.40
2018-05-06T03:53:08.930Z,89.50
2018-05-06T03:55:37.244Z,91.30
2018-05-06T03:58:16.604Z,91.30
2018-05-06T04:00:44.157Z,89.20
2018-05-06T04:03:11.692Z,88.90
2018-05-06T04:05:39.255Z,88.40
2018-05-06T04:08:06.774Z,92.90
2018-05-06T04:10:35.751Z,93.60
2018-05-06T04:13:03.314Z,92.60
2018-05-06T04:15:31.622Z,91.60
2018-05-06T04:17:59.141Z,91.50
2018-05-06T04:20:26.680Z,93.10
2018-05-06T04:22:54.227Z,92.60
2018-05-06T04:25:21.792Z,91.30
2018-05-06T04:27:49.336Z,90.40
2018-05-06T04:30:16.878Z,90.40
2018-05-06T04:32:44.386Z,89.20
2018-05-06T04:35:11.919Z,90.60
2018-05-06T04:37:39.487Z,88.20
2018-05-06T04:40:07.043Z,92.50
2018-05-06T04:42:34.562Z,91.40
2018-05-06T04:45:02.092Z,91.20
2018-05-06T04:47:29.664Z,90.30
2018-05-06T04:49:57.234Z,90.60
2018-05-06T04:52:24.776Z,90.50
2018-05-06T04:54:52.291Z,90.60
2018-05-06T04:57:19.798Z,90.20
2018-05-06T04:59:48.108Z,90.80
2018-05-06T05:02:15.638Z,90.70
2018-05-06T05:04:43.195Z,89.60
2018-05-06T05:07:11.511Z,90.30
2018-05-06T05:09:39.125Z,90.30
2018-05-06T05:12:06.605Z,89.80
2018-05-06T05:14:34.150Z,91.60
2018-05-06T05:17:01.676Z,90.50
2018-05-06T05:19:29.212Z,90.50
2018-05-06T05:21:56.775Z,90.40
2018-05-06T05:24:24.327Z,91.70
2018-05-06T05:26:51.885Z,90.10
2018-05-06T05:29:19.446Z,91.10
2018-05-06T05:31:46.975Z,87.10
2018-05-06T05:34:14.499Z,87.50
2018-05-06T05:36:42.020Z,87.50
2018-05-06T05:39:09.547Z,87.20
2018-05-06T05:41:37.073Z,86.30
2018-05-06T05:44:04.618Z,86.90
2018-05-06T05:46:32.131Z,86.70
2018-05-06T05:48:59.708Z,86.70
2018-05-06T05:51:27.261Z,87.20
2018-05-06T05:53:54.780Z,90.60
2018-05-06T05:56:23.100Z,90.60
2018-05-06T05:58:50.895Z,90.60
2018-05-06T06:01:18.417Z,90.90
2018-05-06T06:03:45.943Z,90.30
2018-05-06T06:06:13.508Z,87.90
2018-05-06T06:08:41.046Z,87.00
2018-05-06T06:11:08.588Z,89.90
2018-05-06T06:13:36.131Z,87.50
2018-05-06T06:16:03.645Z,86.30
2018-05-06T06:18:31.160Z,88.10
2018-05-06T06:20:58.680Z,88.20
2018-05-06T06:23:26.207Z,86.70
2018-05-06T06:25:54.452Z,83.10
2018-05-06T06:28:22.010Z,85.10
2018-05-06T06:30:49.564Z,86.40
2018-05-06T06:33:17.098Z,81.30
2018-05-06T06:35:44.640Z,81.70
2018-05-06T06:38:12.229Z,80.80
2018-05-06T06:40:39.759Z,82.50
2018-05-06T06:43:07.323Z,75.10
2018-05-06T06:45:34.902Z,75.00
2018-05-06T06:48:02.462Z,70.40
2018-05-06T06:50:30.061Z,70.80
2018-05-06T06:52:57.607Z,69.90
2018-05-06T06:55:25.159Z,69.30
2018-05-06T06:57:52.708Z,66.30
2018-05-06T07:00:20.257Z,67.00
2018-05-06T07:02:47.809Z,66.60
2018-05-06T07:05:15.356Z,64.50
2018-05-06T07:07:42.884Z,65.50
2018-05-06T07:10:10.444Z,64.40
2018-05-06T07:12:38.765Z,64.90
2018-05-06T07:15:06.321Z,64.80
2018-05-06T07:17:33.852Z,64.90
2018-05-06T07:20:01.396Z,64.10
2018-05-06T07:22:30.582Z,65.00
2018-05-06T07:24:58.109Z,64.80
2018-05-06T07:27:25.677Z,65.10
2018-05-06T07:29:53.313Z,62.50
2018-05-06T07:32:20.789Z,61.40
2018-05-06T07:34:48.314Z,63.30
2018-05-06T07:37:15.841Z,62.00
2018-05-06T07:39:43.371Z,63.50
2018-05-06T07:42:10.924Z,59.30
2018-05-06T07:44:38.481Z,59.90
2018-05-06T07:47:05.999Z,59.00
2018-05-06T07:49:33.520Z,58.60
2018-05-06T07:52:01.067Z,58.50
2018-05-06T07:54:28.600Z,58.80
2018-05-06T07:56:56.142Z,59.60
2018-05-06T07:59:23.698Z,58.80
2018-05-06T08:01:51.255Z,59.70
2018-05-06T08:04:18.770Z,57.10
2018-05-06T08:06:46.282Z,57.50
2018-05-06T08:09:13.839Z,55.90
2018-05-06T08:11:41.387Z,56.30
2018-05-06T08:14:08.949Z,56.60
2018-05-06T08:16:36.501Z,57.70
2018-05-06T08:19:04.788Z,55.80
2018-05-06T08:21:32.340Z,55.60
2018-05-06T08:23:59.862Z,57.20
2018-05-06T08:26:27.377Z,56.50
2018-05-06T08:28:54.885Z,54.60
2018-05-06T08:31:22.411Z,51.80
2018-05-06T08:33:49.940Z,53.00
2018-05-06T08:36:17.493Z,53.00
2018-05-06T08:38:45.030Z,52.90
2018-05-06T08:41:13.348Z,54.30
2018-05-06T08:43:40.864Z,54.30
2018-05-06T08:46:08.416Z,54.70
2018-05-06T08:48:36.739Z,51.40
2018-05-06T08:51:04.263Z,51.30
2018-05-06T08:53:31.823Z,51.70
2018-05-06T08:56:00.147Z,56.60
2018-05-06T08:58:27.700Z,56.50
2018-05-06T09:00:55.229Z,52.50
2018-05-06T09:03:22.749Z,52.90
2018-05-06T09:05:50.277Z,54.30
2018-05-06T09:08:17.811Z,56.00
2018-05-06T09:10:45.351Z,52.80
2018-05-06T09:13:12.871Z,52.00
2018-05-06T09:15:40.395Z,51.90
2018-05-06T09:18:07.932Z,52.00
2018-05-06T09:20:35.473Z,50.60
2018-05-06T09:23:03.024Z,51.10
2018-05-06T09:25:30.601Z,49.20
2018-05-06T09:27:58.884Z,47.00
2018-05-06T09:30:27.194Z,46.30
2018-05-06T09:32:54.742Z,46.20
2018-05-06T09:35:22.278Z,47.60
2018-05-06T09:37:50.600Z,44.20
2018-05-06T09:40:18.175Z,44.10
2018-05-06T09:42:45.717Z,43.50
2018-05-06T09:45:13.263Z,49.80
2018-05-06T09:47:40.825Z,43.20
2018-05-06T09:50:08.342Z,42.50
2018-05-06T09:52:35.868Z,41.80
2018-05-06T09:55:03.399Z,42.00
2018-05-06T09:57:30.963Z,44.60
2018-05-06T09:59:58.511Z,43.60
2018-05-06T10:02:26.063Z,40.90
2018-05-06T10:04:53.632Z,41.60
2018-05-06T10:07:21.188Z,40.00
2018-05-06T10:09:48.746Z,40.90
2018-05-06T10:12:16.265Z,40.40
2018-05-06T10:14:43.839Z,41.10
2018-05-06T10:17:11.413Z,42.10
2018-05-06T10:19:38.944Z,40.10
2018-05-06T10:22:07.258Z,39.90
2018-05-06T10:24:34.819Z,39.80
2018-05-06T10:27:02.347Z,39.60
2018-05-06T10:29:30.736Z,38.70
2018-05-06T10:31:58.330Z,39.30
2018-05-06T10:34:25.876Z,37.90
2018-05-06T10:36:53.397Z,37.70
2018-05-06T10:39:21.692Z,41.30
2018-05-06T10:41:49.238Z,41.30
2018-05-06T10:44:16.877Z,37.90
2018-05-06T10:46:44.367Z,39.60
2018-05-06T10:49:11.997Z,39.10
2018-05-06T10:51:39.420Z,37.20
2018-05-06T10:54:06.940Z,40.70
2018-05-06T10:56:34.493Z,37.20
2018-05-06T10:59:02.057Z,36.40
2018-05-06T11:01:29.636Z,34.70
2018-05-06T11:03:57.277Z,35.90
2018-05-06T11:06:24.773Z,35.40
2018-05-06T11:08:52.307Z,37.30
2018-05-06T11:11:19.864Z,37.10
2018-05-06T11:13:47.373Z,35.90
2018-05-06T11:16:14.908Z,39.00
2018-05-06T11:18:42.414Z,37.40
2018-05-06T11:21:09.945Z,38.30
2018-05-06T11:23:37.583Z,36.60
2018-05-06T11:26:05.066Z,35.50
2018-05-06T11:28:32.614Z,35.60
2018-05-06T11:31:00.119Z,39.10
2018-05-06T11:33:27.696Z,36.70
2018-05-06T11:35:55.203Z,36.40
2018-05-06T11:38:22.731Z,36.80
2018-05-06T11:40:50.245Z,36.30
2018-05-06T11:43:17.747Z,39.10
2018-05-06T11:45:45.258Z,38.50
2018-05-06T11:48:12.864Z,42.20
2018-05-06T11:50:40.346Z,38.30
2018-05-06T11:53:07.857Z,39.10
2018-05-06T11:55:36.177Z,37.30
2018-05-06T11:58:03.705Z,36.70
2018-05-06T12:00:31.246Z,38.10
2018-05-06T12:03:00.768Z,37.90
2018-05-06T12:05:28.363Z,37.90
2018-05-06T12:07:55.920Z,39.10
2018-05-06T12:10:23.451Z,37.50
2018-05-06T12:12:51.029Z,40.10
2018-05-06T12:15:18.537Z,38.50
2018-05-06T12:17:46.090Z,37.70
2018-05-06T12:20:14.398Z,38.40
2018-05-06T12:22:42.677Z,40.30
2018-05-06T12:25:11.007Z,37.80
2018-05-06T12:27:38.667Z,37.90
2018-05-06T12:30:06.182Z,40.00
2018-05-06T12:32:33.747Z,40.00
2018-05-06T12:35:01.292Z,39.10
2018-05-06T12:37:29.988Z,38.50
2018-05-06T12:39:57.499Z,41.20
2018-05-06T12:42:25.060Z,38.60
2018-05-06T12:44:52.587Z,40.70
2018-05-06T12:47:20.119Z,41.40
2018-05-06T12:49:47.642Z,42.00
2018-05-06T12:52:15.205Z,39.00
2018-05-06T12:54:42.721Z,40.00
2018-05-06T12:57:10.234Z,40.10
2018-05-06T12:59:37.750Z,39.70
2018-05-06T13:02:05.276Z,44.50
2018-05-06T13:04:32.830Z,40.40
2018-05-06T13:07:00.374Z,39.80
2018-05-06T13:09:28.668Z,39.90
2018-05-06T13:11:56.228Z,39.80
2018-05-06T13:14:23.770Z,41.90
2018-05-06T13:16:52.097Z,40.90
2018-05-06T13:19:19.616Z,41.10
2018-05-06T13:21:47.143Z,41.30
2018-05-06T13:24:14.699Z,42.60
2018-05-06T13:26:42.222Z,43.40
2018-05-06T13:29:09.762Z,43.20
2018-05-06T13:31:37.294Z,41.70
2018-05-06T13:34:04.810Z,41.30
2018-05-06T13:36:32.349Z,40.40
2018-05-06T13:38:59.859Z,41.90
2018-05-06T13:41:27.380Z,41.10
2018-05-06T13:43:55.005Z,42.00
2018-05-06T13:46:22.500Z,41.30
2018-05-06T13:48:50.010Z,42.60
2018-05-06T13:51:18.331Z,40.50
2018-05-06T13:53:45.842Z,40.50
2018-05-06T13:56:14.117Z,43.10
2018-05-06T13:58:41.651Z,43.10
2018-05-06T14:01:09.197Z,39.40
2018-05-06T14:03:36.740Z,38.50
2018-05-06T14:06:04.270Z,38.60
2018-05-06T14:08:31.783Z,38.30
2018-05-06T14:10:59.315Z,38.60
2018-05-06T14:13:26.875Z,39.50
2018-05-06T14:15:54.441Z,39.50
2018-05-06T14:18:21.995Z,38.30
2018-05-06T14:20:50.352Z,39.20
2018-05-06T14:23:17.912Z,41.50
2018-05-06T14:25:45.456Z,41.50
2018-05-06T14:28:12.982Z,39.30
2018-05-06T14:30:40.525Z,39.50
2018-05-06T14:33:08.073Z,39.40
2018-05-06T14:35:35.617Z,40.20
2018-05-06T14:38:03.152Z,46.00
2018-05-06T14:40:30.662Z,42.20
2018-05-06T14:42:58.202Z,42.90
2018-05-06T14:45:25.751Z,40.40
2018-05-06T14:48:05.185Z,41.60
2018-05-06T14:50:32.711Z,42.30
2018-05-06T14:53:00.227Z,40.20
2018-05-06T14:55:27.838Z,41.10
2018-05-06T14:57:55.429Z,38.60
2018-05-06T15:00:22.942Z,39.10
2018-05-06T15:02:50.485Z,39.20
2018-05-06T15:05:18.770Z,38.70
2018-05-06T15:07:47.064Z,39.50
2018-05-06T15:10:14.589Z,39.40
2018-05-06T15:12:42.139Z,43.10
2018-05-06T15:15:09.641Z,40.00
2018-05-06T15:17:37.175Z,42.00
2018-05-06T15:20:04.732Z,40.00
2018-05-06T15:22:32.274Z,38.60
2018-05-06T15:24:59.798Z,39.00
2018-05-06T15:27:27.348Z,40.10
2018-05-06T15:29:54.900Z,40.80
2018-05-06T15:32:22.423Z,42.40
2018-05-06T15:34:49.942Z,40.30
2018-05-06T15:37:17.477Z,41.10
2018-05-06T15:39:45.000Z,40.40
2018-05-06T15:42:12.511Z,42.10
2018-05-06T15:44:40.883Z,40.60
2018-05-06T15:47:08.509Z,40.60
2018-05-06T15:49:36.816Z,44.00
2018-05-06T15:52:04.322Z,44.10
2018-05-06T15:54:31.846Z,46.10
2018-05-06T15:56:59.384Z,41.90
2018-05-06T15:59:26.932Z,40.60
2018-05-06T16:02:06.133Z,44.40
2018-05-06T16:04:33.670Z,43.60
2018-05-06T16:07:01.220Z,40.90
2018-05-06T16:09:28.773Z,42.10
2018-05-06T16:11:56.366Z,41.30
2018-05-06T16:14:23.831Z,42.30
2018-05-06T16:16:51.382Z,42.00
2018-05-06T16:19:18.935Z,42.70
2018-05-06T16:21:46.474Z,41.80
2018-05-06T16:24:14.038Z,41.70
2018-05-06T16:26:41.596Z,41.50
2018-05-06T16:29:09.149Z,40.90
2018-05-06T16:31:36.692Z,41.50
2018-05-06T16:34:04.308Z,40.90
2018-05-06T16:36:31.874Z,40.70
2018-05-06T16:38:59.423Z,40.90
2018-05-06T16:41:26.968Z,42.20
2018-05-06T16:43:54.492Z,42.70
2018-05-06T16:46:22.018Z,43.70
2018-05-06T16:48:50.362Z,42.40
2018-05-06T16:51:17.927Z,42.40
2018-05-06T16:53:46.266Z,42.00
2018-05-06T16:56:13.778Z,45.40
2018-05-06T16:58:41.363Z,43.70
2018-05-06T17:01:08.910Z,42.90
2018-05-06T17:03:36.453Z,44.00
2018-05-06T17:06:04.004Z,42.60
2018-05-06T17:08:31.568Z,43.40
2018-05-06T17:10:59.107Z,43.30
2018-05-06T17:13:26.665Z,43.10
2018-05-06T17:15:54.220Z,46.00
2018-05-06T17:18:21.735Z,43.90
2018-05-06T17:20:50.070Z,44.30
2018-05-06T17:23:17.614Z,44.30
2018-05-06T17:25:45.173Z,45.00
2018-05-06T17:28:12.708Z,45.60
2018-05-06T17:30:40.250Z,44.90
2018-05-06T17:33:07.794Z,45.20
2018-05-06T17:35:36.119Z,46.50
2018-05-06T17:38:03.643Z,46.50
2018-05-06T17:40:31.192Z,49.00
2018-05-06T17:42:59.486Z,46.10
2018-05-06T17:45:27.010Z,46.10
2018-05-06T17:47:55.456Z,45.90
2018-05-06T17:50:23.020Z,46.20
2018-05-06T17:52:50.554Z,47.10
2018-05-06T17:55:18.079Z,46.60
2018-05-06T17:57:45.743Z,47.60
2018-05-06T18:00:13.323Z,46.60
2018-05-06T18:02:40.846Z,48.40
2018-05-06T18:05:09.155Z,48.10
2018-05-06T18:07:36.743Z,48.10
2018-05-06T18:10:04.283Z,47.80
2018-05-06T18:12:31.821Z,48.20
2018-05-06T18:15:00.094Z,48.00
2018-05-06T18:17:28.411Z,49.40
2018-05-06T18:19:55.961Z,49.40
2018-05-06T18:22:23.507Z,49.20
2018-05-06T18:24:51.068Z,49.70
2018-05-06T18:27:18.595Z,50.40
2018-05-06T18:29:46.152Z,50.40
2018-05-06T18:32:13.791Z,51.40
2018-05-06T18:34:41.251Z,51.20
2018-05-06T18:37:08.790Z,51.40
2018-05-06T18:39:36.344Z,51.70
2018-05-06T18:42:03.855Z,51.90
2018-05-06T18:44:31.408Z,52.40
2018-05-06T18:46:59.694Z,53.80
2018-05-06T18:49:28.004Z,54.10
2018-05-06T18:51:55.537Z,54.00
2018-05-06T18:54:23.840Z,55.20
2018-05-06T18:56:51.354Z,55.20
2018-05-06T18:59:18.902Z,55.50
2018-05-06T19:01:46.451Z,56.90
2018-05-06T19:04:13.965Z,57.80
2018-05-06T19:06:41.480Z,58.20
2018-05-06T19:09:09.057Z,61.00
2018-05-06T19:11:37.354Z,62.50
2018-05-06T19:14:12.376Z,62.80
2018-05-06T19:16:40.685Z,63.50
2018-05-06T19:19:08.225Z,63.50
2018-05-06T19:21:35.776Z,66.70
2018-05-06T19:24:04.060Z,67.10
2018-05-06T19:26:32.363Z,67.90
2018-05-06T19:28:59.912Z,67.70
2018-05-06T19:31:27.497Z,68.60
2018-05-06T19:33:55.108Z,69.30
2018-05-06T19:36:23.416Z,70.50
2018-05-06T19:38:50.971Z,70.40
2018-05-06T19:41:18.534Z,72.70
2018-05-06T19:43:46.097Z,73.30
2018-05-06T19:46:13.836Z,73.00
2018-05-06T19:48:41.420Z,74.00
2018-05-06T19:51:08.952Z,72.90
2018-05-06T19:53:36.507Z,75.30
2018-05-06T19:56:04.052Z,74.60
2018-05-06T19:58:32.367Z,77.90
2018-05-06T20:01:00.072Z,77.80
2018-05-06T20:03:28.042Z,76.90
2018-05-06T20:05:55.567Z,78.60
2018-05-06T20:08:23.131Z,78.20
2018-05-06T20:10:50.638Z,76.60
2018-05-06T20:13:18.969Z,73.90
2018-05-06T20:15:46.580Z,73.80
2018-05-06T20:18:14.284Z,70.30
2018-05-06T20:20:41.859Z,72.20
2018-05-06T20:23:09.406Z,69.50
2018-05-06T20:25:36.930Z,68.50
2018-05-06T20:28:05.246Z,70.30
2018-05-06T20:30:32.826Z,70.40
2018-05-06T20:33:00.355Z,70.00
2018-05-06T20:35:27.889Z,69.00
2018-05-06T20:37:55.447Z,70.30
2018-05-06T20:40:22.975Z,70.00
2018-05-06T20:42:50.540Z,69.80
2018-05-06T20:45:18.096Z,69.40
2018-05-06T20:47:46.501Z,71.80
2018-05-06T20:50:14.046Z,71.60
2018-05-06T20:52:42.343Z,73.50
2018-05-06T20:55:09.959Z,73.40
2018-05-06T20:57:37.459Z,72.70
2018-05-06T21:00:04.994Z,72.50
2018-05-06T21:02:33.308Z,73.70
2018-05-06T21:05:00.923Z,73.70
2018-05-06T21:07:29.278Z,73.20
2018-05-06T21:09:56.833Z,73.20
2018-05-06T21:12:24.362Z,74.60
2018-05-06T21:14:51.894Z,73.90
2018-05-06T21:17:20.216Z,74.20
2018-05-06T21:19:47.763Z,74.20
2018-05-06T21:22:15.284Z,74.70
2018-05-06T21:24:42.844Z,74.60
2018-05-06T21:27:11.174Z,75.30
2018-05-06T21:29:38.791Z,75.10
2018-05-06T21:32:06.201Z,75.80
2018-05-06T21:34:33.763Z,75.10
2018-05-06T21:37:01.331Z,73.30
2018-05-06T21:39:28.931Z,73.50
2018-05-06T21:41:56.471Z,74.10
2018-05-06T21:44:24.790Z,73.80
2018-05-06T21:46:52.315Z,73.70
2018-05-06T21:49:19.857Z,73.30
2018-05-06T21:51:48.157Z,76.20
2018-05-06T21:54:15.675Z,76.10
2018-05-06T21:56:43.243Z,74.60
2018-05-06T21:59:11.564Z,75.60
2018-05-06T22:01:39.119Z,75.60
2018-05-06T22:04:06.634Z,75.80
2018-05-06T22:06:34.200Z,75.10
2018-05-06T22:09:01.720Z,75.30
2018-05-06T22:11:29.268Z,74.90
2018-05-06T22:13:56.822Z,75.20
2018-05-06T22:16:24.338Z,75.50
2018-05-06T22:18:52.626Z,76.00
2018-05-06T22:21:20.903Z,79.90
2018-05-06T22:23:49.883Z,78.40
2018-05-06T22:26:17.412Z,78.40
2018-05-06T22:28:44.956Z,79.20
2018-05-06T22:31:12.535Z,77.40
2018-05-06T22:33:40.861Z,78.90
2018-05-06T22:36:08.419Z,78.90
2018-05-06T22:38:35.959Z,79.10
2018-05-06T22:41:04.269Z,81.90
2018-05-06T22:43:31.823Z,81.80
2018-05-06T22:45:59.360Z,81.00
2018-05-06T22:48:27.648Z,82.20
2018-05-06T22:50:55.206Z,82.20
2018-05-06T22:53:22.735Z,80.80
2018-05-06T22:55:50.249Z,80.50
2018-05-06T22:58:17.785Z,83.40
2018-05-06T23:00:45.312Z,82.20
2018-05-06T23:03:13.642Z,81.70
2018-05-06T23:05:41.208Z,81.50
2018-05-06T23:08:08.770Z,82.40
2018-05-06T23:10:36.312Z,84.00
2018-05-06T23:13:03.859Z,82.70
2018-05-06T23:15:31.413Z,82.10
2018-05-06T23:17:58.963Z,82.90
2018-05-06T23:20:27.291Z,88.00
2018-05-06T23:22:54.835Z,87.90
2018-05-06T23:25:22.440Z,86.80
2018-05-06T23:27:49.954Z,87.50
2018-05-06T23:30:17.508Z,89.40
2018-05-06T23:32:45.081Z,89.20
2018-05-06T23:35:12.632Z,88.40
2018-05-06T23:37:40.148Z,89.60
2018-05-06T23:40:07.698Z,87.60
2018-05-06T23:42:35.989Z,87.50
2018-05-06T23:45:04.315Z,89.80
2018-05-06T23:47:31.847Z,89.80
2018-05-06T23:49:59.396Z,87.70
2018-05-06T23:52:26.925Z,87.40
2018-05-06T23:54:54.483Z,88.30
2018-05-06T23:57:22.795Z,86.70
2018-05-06T23:59:50.352Z,86.20
